TimeEDT,TemperatureF,Dew PointF,Humidity,Sea Level PressureIn,VisibilityMPH,Wind Direction,Wind SpeedMPH,Gust SpeedMPH,PrecipitationIn,Events,Conditions,WindDirDegrees,DateUTC
12:54 AM,75.9,68.0,76,29.66,10.0,South,6.9,-,N/A,,Clear,190,2013-07-20 04:54:00
1:54 AM,75.0,66.9,76,29.67,10.0,South,10.4,-,N/A,,Clear,180,2013-07-20 05:54:00
2:54 AM,75.0,66.9,76,29.66,10.0,South,11.5,-,N/A,,Partly Cloudy,190,2013-07-20 06:54:00
3:54 AM,73.9,66.9,79,29.66,10.0,South,10.4,-,N/A,,Scattered Clouds,190,2013-07-20 07:54:00
4:54 AM,72.0,66.9,84,29.64,10.0,South,10.4,-,0.03,,Mostly Cloudy,180,2013-07-20 08:54:00
5:54 AM,72.0,66.9,84,29.67,10.0,South,10.4,-,0.00,,Overcast,190,2013-07-20 09:54:00
6:54 AM,73.0,66.9,81,29.68,10.0,South,12.7,-,0.00,Rain,Light Rain,180,2013-07-20 10:54:00
7:54 AM,73.0,66.9,81,29.69,10.0,South,11.5,-,0.01,Rain,Light Rain,190,2013-07-20 11:54:00
8:54 AM,75.0,66.0,73,29.68,10.0,SSW,13.8,-,0.00,,Mostly Cloudy,200,2013-07-20 12:54:00
9:54 AM,75.9,66.0,71,29.66,10.0,South,9.2,-,N/A,,Overcast,190,2013-07-20 13:54:00
10:54 AM,78.1,66.0,66,29.66,10.0,SSW,8.1,-,N/A,,Mostly Cloudy,200,2013-07-20 14:54:00
11:54 AM,81.0,68.0,65,29.64,10.0,SW,9.2,17.3,N/A,,Mostly Cloudy,230,2013-07-20 15:54:00
12:54 PM,81.0,68.0,65,29.62,10.0,SSW,13.8,21.9,0.00,Rain,Light Rain,200,2013-07-20 16:54:00
1:54 PM,79.0,68.0,69,29.65,10.0,WSW,6.9,-,0.00,,Overcast,240,2013-07-20 17:54:00
2:54 PM,84.0,63.0,49,29.66,10.0,WSW,12.7,19.6,N/A,,Mostly Cloudy,240,2013-07-20 18:54:00
3:54 PM,84.0,61.0,46,29.66,10.0,West,10.4,-,N/A,,Mostly Cloudy,280,2013-07-20 19:54:00
4:54 PM,86.0,57.0,37,29.68,10.0,WNW,13.8,20.7,N/A,,Partly Cloudy,290,2013-07-20 20:54:00
5:54 PM,84.0,53.1,34,29.70,10.0,NW,12.7,-,N/A,,Partly Cloudy,310,2013-07-20 21:54:00
6:54 PM,82.0,54.0,38,29.72,10.0,WNW,8.1,-,N/A,,Clear,290,2013-07-20 22:54:00
7:54 PM,80.1,55.0,42,29.73,10.0,NW,4.6,-,N/A,,Scattered Clouds,310,2013-07-20 23:54:00
8:54 PM,75.9,55.9,50,29.74,10.0,West,4.6,-,N/A,,Mostly Cloudy,280,2013-07-21 00:54:00
9:54 PM,75.0,59.0,57,29.79,10.0,NW,10.4,-,N/A,,Overcast,320,2013-07-21 01:54:00
10:54 PM,69.1,63.0,81,29.82,10.0,WNW,6.9,-,0.03,Rain,Light Rain,300,2013-07-21 02:54:00
11:54 PM,69.1,62.1,78,29.83,10.0,WNW,3.5,-,0.00,,Overcast,300,2013-07-21 03:54:00